sensor_id;sensor_type;location;lat;lon;timestamp;pressure;altitude;pressure_sealevel;temperature;humidity
64792;BME280;51226;47.504;19.074;2023-04-25T00:02:31;99210.34;;;13.71;70.33
64792;BME280;51226;47.504;19.074;2023-04-25T00:05:35;99209.37;;;13.59;70.07
64792;BME280;51226;47.504;19.074;2023-04-25T00:08:39;99201.50;;;13.54;70.49
64792;BME280;51226;47.504;19.074;2023-04-25T00:11:42;99207.59;;;13.55;70.64
64792;BME280;51226;47.504;19.074;2023-04-25T00:14:44;99198.03;;;13.61;70.11
64792;BME280;51226;47.504;19.074;2023-04-25T00:17:48;99198.06;;;13.64;69.35
64792;BME280;51226;47.504;19.074;2023-04-25T00:20:50;99199.81;;;13.64;69.12
64792;BME280;51226;47.504;19.074;2023-04-25T00:23:53;99198.97;;;13.65;68.24
64792;BME280;51226;47.504;19.074;2023-04-25T00:26:56;99201.50;;;13.56;68.68
64792;BME280;51226;47.504;19.074;2023-04-25T00:29:59;99192.84;;;13.67;67.57
64792;BME280;51226;47.504;19.074;2023-04-25T00:33:02;99195.38;;;13.55;68.22
64792;BME280;51226;47.504;19.074;2023-04-25T00:36:05;99184.97;;;13.66;67.29
64792;BME280;51226;47.504;19.074;2023-04-25T00:39:07;99188.44;;;13.59;67.66
64792;BME280;51226;47.504;19.074;2023-04-25T00:42:10;99174.44;;;13.57;67.53
64792;BME280;51226;47.504;19.074;2023-04-25T00:45:14;99175.25;;;13.48;68.05
64792;BME280;51226;47.504;19.074;2023-04-25T00:48:18;99173.44;;;13.38;68.35
64792;BME280;51226;47.504;19.074;2023-04-25T00:51:21;99170.81;;;13.39;68.60
64792;BME280;51226;47.504;19.074;2023-04-25T00:54:24;99174.34;;;13.38;68.48
64792;BME280;51226;47.504;19.074;2023-04-25T00:57:27;99162.87;;;13.28;69.02
64792;BME280;51226;47.504;19.074;2023-04-25T01:00:31;99162.09;;;13.37;68.24
64792;BME280;51226;47.504;19.074;2023-04-25T01:03:33;99159.47;;;13.36;67.99
64792;BME280;51226;47.504;19.074;2023-04-25T01:06:38;99149.81;;;13.33;68.19
64792;BME280;51226;47.504;19.074;2023-04-25T01:09:41;99146.28;;;13.31;67.93
64792;BME280;51226;47.504;19.074;2023-04-25T01:12:46;99142.91;;;13.38;67.55
64792;BME280;51226;47.504;19.074;2023-04-25T01:15:49;99132.37;;;13.32;67.38
64792;BME280;51226;47.504;19.074;2023-04-25T01:18:52;99148.84;;;13.19;67.70
64792;BME280;51226;47.504;19.074;2023-04-25T01:21:54;99149.63;;;13.08;67.86
64792;BME280;51226;47.504;19.074;2023-04-25T01:24:57;99146.19;;;13.15;67.96
64792;BME280;51226;47.504;19.074;2023-04-25T01:28:00;99142.63;;;13.06;68.13
64792;BME280;51226;47.504;19.074;2023-04-25T01:31:03;99153.97;;;13.03;68.22
64792;BME280;51226;47.504;19.074;2023-04-25T01:34:06;99143.53;;;13.12;68.32
64792;BME280;51226;47.504;19.074;2023-04-25T01:37:09;99138.25;;;13.02;68.59
64792;BME280;51226;47.504;19.074;2023-04-25T01:40:12;99127.81;;;13.05;68.33
64792;BME280;51226;47.504;19.074;2023-04-25T01:43:15;99140.84;;;13.02;68.90
64792;BME280;51226;47.504;19.074;2023-04-25T01:46:17;99140.84;;;13.02;68.92
64792;BME280;51226;47.504;19.074;2023-04-25T01:49:20;99142.66;;;13.10;68.55
64792;BME280;51226;47.504;19.074;2023-04-25T01:52:23;99135.62;;;13.06;68.71
64792;BME280;51226;47.504;19.074;2023-04-25T01:55:26;99143.44;;;12.98;68.61
64792;BME280;51226;47.504;19.074;2023-04-25T01:58:30;99147.81;;;12.98;68.86
64792;BME280;51226;47.504;19.074;2023-04-25T02:01:35;99140.03;;;13.07;68.40
64792;BME280;51226;47.504;19.074;2023-04-25T02:04:38;99140.88;;;13.03;68.42
64792;BME280;51226;47.504;19.074;2023-04-25T02:07:41;99144.38;;;13.05;68.44
64792;BME280;51226;47.504;19.074;2023-04-25T02:10:44;99146.91;;;12.96;68.28
64792;BME280;51226;47.504;19.074;2023-04-25T02:13:48;99142.56;;;12.95;68.26
64792;BME280;51226;47.504;19.074;2023-04-25T02:16:51;99134.66;;;12.92;67.83
64792;BME280;51226;47.504;19.074;2023-04-25T02:19:54;99146.00;;;12.91;67.81
64792;BME280;51226;47.504;19.074;2023-04-25T02:22:58;99142.53;;;12.92;67.84
64792;BME280;51226;47.504;19.074;2023-04-25T02:26:02;99140.75;;;12.91;67.55
64792;BME280;51226;47.504;19.074;2023-04-25T02:29:05;99142.41;;;12.81;67.64
64792;BME280;51226;47.504;19.074;2023-04-25T02:32:08;99139.69;;;12.67;68.37
64792;BME280;51226;47.504;19.074;2023-04-25T02:35:10;99148.56;;;12.86;67.50
64792;BME280;51226;47.504;19.074;2023-04-25T02:38:13;99144.09;;;12.74;67.51
64792;BME280;51226;47.504;19.074;2023-04-25T02:41:16;99143.22;;;12.74;67.32
64792;BME280;51226;47.504;19.074;2023-04-25T02:44:19;99145.00;;;12.76;67.28
64792;BME280;51226;47.504;19.074;2023-04-25T02:47:22;99137.16;;;12.76;66.69
64792;BME280;51226;47.504;19.074;2023-04-25T02:50:25;99138.88;;;12.76;66.58
64792;BME280;51226;47.504;19.074;2023-04-25T02:53:28;99141.47;;;12.73;67.13
64792;BME280;51226;47.504;19.074;2023-04-25T02:56:31;99143.31;;;12.83;65.99
64792;BME280;51226;47.504;19.074;2023-04-25T02:59:33;99134.56;;;12.81;65.29
64792;BME280;51226;47.504;19.074;2023-04-25T03:02:36;99138.81;;;12.68;65.90
64792;BME280;51226;47.504;19.074;2023-04-25T03:05:39;99144.88;;;12.64;65.92
64792;BME280;51226;47.504;19.074;2023-04-25T03:08:42;99134.53;;;12.76;65.08
64792;BME280;51226;47.504;19.074;2023-04-25T03:11:45;99132.69;;;12.68;65.34
64792;BME280;51226;47.504;19.074;2023-04-25T03:14:48;99146.78;;;12.81;64.98
64792;BME280;51226;47.504;19.074;2023-04-25T03:17:50;99147.66;;;12.83;64.97
64792;BME280;51226;47.504;19.074;2023-04-25T03:20:53;99144.09;;;12.74;65.58
64792;BME280;51226;47.504;19.074;2023-04-25T03:23:55;99132.81;;;12.80;65.59
64792;BME280;51226;47.504;19.074;2023-04-25T03:26:58;99133.75;;;12.87;65.17
64792;BME280;51226;47.504;19.074;2023-04-25T03:30:01;99133.75;;;12.85;64.99
64792;BME280;51226;47.504;19.074;2023-04-25T03:33:04;99138.72;;;12.59;66.16
64792;BME280;51226;47.504;19.074;2023-04-25T03:36:07;99124.03;;;12.72;65.01
64792;BME280;51226;47.504;19.074;2023-04-25T03:39:10;99145.72;;;12.60;65.08
64792;BME280;51226;47.504;19.074;2023-04-25T03:42:13;99143.94;;;12.56;65.33
64792;BME280;51226;47.504;19.074;2023-04-25T03:45:18;99140.37;;;12.49;65.75
64792;BME280;51226;47.504;19.074;2023-04-25T03:48:21;99140.44;;;12.54;65.52
64792;BME280;51226;47.504;19.074;2023-04-25T03:51:25;99139.59;;;12.61;65.25
64792;BME280;51226;47.504;19.074;2023-04-25T03:54:28;99145.75;;;12.62;64.87
64792;BME280;51226;47.504;19.074;2023-04-25T03:57:31;99145.63;;;12.51;65.52
64792;BME280;51226;47.504;19.074;2023-04-25T04:00:34;99151.72;;;12.50;65.86
64792;BME280;51226;47.504;19.074;2023-04-25T04:03:37;99149.94;;;12.46;65.90
64792;BME280;51226;47.504;19.074;2023-04-25T04:06:40;99150.88;;;12.52;65.74
64792;BME280;51226;47.504;19.074;2023-04-25T04:09:44;99141.41;;;12.64;65.45
64792;BME280;51226;47.504;19.074;2023-04-25T04:12:47;99156.84;;;12.39;66.05
64792;BME280;51226;47.504;19.074;2023-04-25T04:15:50;99156.03;;;12.48;65.47
64792;BME280;51226;47.504;19.074;2023-04-25T04:18:52;99160.28;;;12.35;66.06
64792;BME280;51226;47.504;19.074;2023-04-25T04:21:55;99151.56;;;12.36;66.16
64792;BME280;51226;47.504;19.074;2023-04-25T04:25:01;99163.03;;;12.49;65.36
64792;BME280;51226;47.504;19.074;2023-04-25T04:28:07;99169.09;;;12.46;65.82
64792;BME280;51226;47.504;19.074;2023-04-25T04:31:09;99160.50;;;12.55;65.70
64792;BME280;51226;47.504;19.074;2023-04-25T04:34:12;99170.03;;;12.53;65.92
64792;BME280;51226;47.504;19.074;2023-04-25T04:37:15;99166.53;;;12.51;66.19
64792;BME280;51226;47.504;19.074;2023-04-25T04:40:18;99170.00;;;12.47;66.61
64792;BME280;51226;47.504;19.074;2023-04-25T04:43:21;99170.03;;;12.53;66.96
64792;BME280;51226;47.504;19.074;2023-04-25T04:46:25;99171.69;;;12.41;67.77
64792;BME280;51226;47.504;19.074;2023-04-25T04:49:30;99165.78;;;12.63;67.10
64792;BME280;51226;47.504;19.074;2023-04-25T04:52:34;99165.75;;;12.56;67.20
64792;BME280;51226;47.504;19.074;2023-04-25T04:55:37;99170.84;;;12.44;68.10
64792;BME280;51226;47.504;19.074;2023-04-25T04:58:40;99173.50;;;12.49;68.17
64792;BME280;51226;47.504;19.074;2023-04-25T05:01:42;99162.91;;;12.36;67.69
64792;BME280;51226;47.504;19.074;2023-04-25T05:04:47;99175.06;;;12.31;68.75
64792;BME280;51226;47.504;19.074;2023-04-25T05:07:50;99163.66;;;12.26;69.55
64792;BME280;51226;47.504;19.074;2023-04-25T05:10:53;99179.31;;;12.21;69.96
64792;BME280;51226;47.504;19.074;2023-04-25T05:13:57;99178.53;;;12.30;69.06
64792;BME280;51226;47.504;19.074;2023-04-25T05:17:00;99174.88;;;12.16;70.20
64792;BME280;51226;47.504;19.074;2023-04-25T05:20:05;99183.59;;;12.15;69.94
64792;BME280;51226;47.504;19.074;2023-04-25T05:23:09;99180.09;;;12.16;70.53
64792;BME280;51226;47.504;19.074;2023-04-25T05:26:12;99194.06;;;12.19;70.59
64792;BME280;51226;47.504;19.074;2023-04-25T05:29:17;99187.22;;;12.29;70.38
64792;BME280;51226;47.504;19.074;2023-04-25T05:32:19;99175.78;;;12.21;70.65
64792;BME280;51226;47.504;19.074;2023-04-25T05:35:23;99188.84;;;12.18;70.83
64792;BME280;51226;47.504;19.074;2023-04-25T05:38:26;99192.09;;;12.00;71.80
64792;BME280;51226;47.504;19.074;2023-04-25T05:41:29;99191.19;;;11.95;70.98
64792;BME280;51226;47.504;19.074;2023-04-25T05:44:32;99186.69;;;11.89;71.76
64792;BME280;51226;47.504;19.074;2023-04-25T05:47:36;99184.87;;;11.82;72.92
64792;BME280;51226;47.504;19.074;2023-04-25T05:50:38;99184.03;;;11.84;73.35
64792;BME280;51226;47.504;19.074;2023-04-25T05:53:45;99192.87;;;11.91;74.19
64792;BME280;51226;47.504;19.074;2023-04-25T05:56:47;99189.38;;;11.92;73.99
64792;BME280;51226;47.504;19.074;2023-04-25T05:59:50;99192.78;;;11.88;73.73
64792;BME280;51226;47.504;19.074;2023-04-25T06:02:53;99198.81;;;11.84;74.71
64792;BME280;51226;47.504;19.074;2023-04-25T06:05:56;99195.34;;;11.83;74.82
64792;BME280;51226;47.504;19.074;2023-04-25T06:09:00;99201.31;;;11.73;74.87
64792;BME280;51226;47.504;19.074;2023-04-25T06:12:06;99198.78;;;11.81;76.20
64792;BME280;51226;47.504;19.074;2023-04-25T06:15:09;99204.00;;;11.81;75.67
64792;BME280;51226;47.504;19.074;2023-04-25T06:18:30;99202.25;;;11.80;76.22
64792;BME280;51226;47.504;19.074;2023-04-25T06:21:32;99204.12;;;11.90;76.58
64792;BME280;51226;47.504;19.074;2023-04-25T06:24:35;99206.00;;;11.97;76.07
64792;BME280;51226;47.504;19.074;2023-04-25T06:27:38;99205.25;;;12.04;75.16
64792;BME280;51226;47.504;19.074;2023-04-25T06:30:43;99213.09;;;12.08;76.54
64792;BME280;51226;47.504;19.074;2023-04-25T06:33:46;99208.81;;;12.14;76.60
64792;BME280;51226;47.504;19.074;2023-04-25T06:36:51;99210.84;;;12.35;75.77
64792;BME280;51226;47.504;19.074;2023-04-25T06:39:54;99209.22;;;12.45;76.01
64792;BME280;51226;47.504;19.074;2023-04-25T06:42:57;99195.25;;;12.46;74.12
64792;BME280;51226;47.504;19.074;2023-04-25T06:46:00;99203.97;;;12.44;75.11
64792;BME280;51226;47.504;19.074;2023-04-25T06:49:04;99207.63;;;12.63;74.81
64792;BME280;51226;47.504;19.074;2023-04-25T06:52:07;99210.31;;;12.67;74.15
64792;BME280;51226;47.504;19.074;2023-04-25T06:55:11;99210.38;;;12.73;73.54
64792;BME280;51226;47.504;19.074;2023-04-25T06:58:14;99206.94;;;12.81;73.34
64792;BME280;51226;47.504;19.074;2023-04-25T07:01:21;99204.44;;;12.93;72.98
64792;BME280;51226;47.504;19.074;2023-04-25T07:04:23;99212.28;;;12.93;72.73
64792;BME280;51226;47.504;19.074;2023-04-25T07:07:27;99208.00;;;13.00;72.75
64792;BME280;51226;47.504;19.074;2023-04-25T07:10:30;99211.66;;;13.19;71.79
64792;BME280;51226;47.504;19.074;2023-04-25T07:13:33;99210.72;;;13.09;71.67
64792;BME280;51226;47.504;19.074;2023-04-25T07:16:35;99213.38;;;13.13;71.10
64792;BME280;51226;47.504;19.074;2023-04-25T07:19:38;99211.69;;;13.20;71.13
64792;BME280;51226;47.504;19.074;2023-04-25T07:22:42;99211.00;;;13.38;69.33
64792;BME280;51226;47.504;19.074;2023-04-25T07:25:46;99210.19;;;13.50;68.63
64792;BME280;51226;47.504;19.074;2023-04-25T07:28:52;99214.59;;;13.56;69.16
64792;BME280;51226;47.504;19.074;2023-04-25T07:31:57;99218.97;;;13.55;69.21
64792;BME280;51226;47.504;19.074;2023-04-25T07:34:59;99215.59;;;13.71;68.16
64792;BME280;51226;47.504;19.074;2023-04-25T07:38:04;99218.19;;;13.68;68.31
64792;BME280;51226;47.504;19.074;2023-04-25T07:41:09;99219.91;;;13.69;68.99
64792;BME280;51226;47.504;19.074;2023-04-25T07:44:13;99225.28;;;13.89;68.35
64792;BME280;51226;47.504;19.074;2023-04-25T07:47:16;99221.00;;;14.05;67.74
64792;BME280;51226;47.504;19.074;2023-04-25T07:50:19;99227.19;;;14.15;67.31
64792;BME280;51226;47.504;19.074;2023-04-25T07:53:22;99219.41;;;14.35;65.54
64792;BME280;51226;47.504;19.074;2023-04-25T07:56:27;99226.44;;;14.49;65.04
64792;BME280;51226;47.504;19.074;2023-04-25T07:59:39;99224.75;;;14.66;64.58
64792;BME280;51226;47.504;19.074;2023-04-25T08:02:43;99220.38;;;14.70;62.55
64792;BME280;51226;47.504;19.074;2023-04-25T08:05:47;99223.06;;;14.85;62.83
64792;BME280;51226;47.504;19.074;2023-04-25T08:08:50;99217.78;;;14.87;63.12
64792;BME280;51226;47.504;19.074;2023-04-25T08:11:53;99214.31;;;15.00;63.01
64792;BME280;51226;47.504;19.074;2023-04-25T08:14:56;99223.97;;;15.49;59.39
64792;BME280;51226;47.504;19.074;2023-04-25T08:18:00;99223.09;;;15.64;59.30
64792;BME280;51226;47.504;19.074;2023-04-25T08:21:03;99229.22;;;15.80;59.40
64792;BME280;51226;47.504;19.074;2023-04-25T08:24:06;99225.59;;;16.18;58.02
64792;BME280;51226;47.504;19.074;2023-04-25T08:27:09;99216.69;;;16.53;55.62
64792;BME280;51226;47.504;19.074;2023-04-25T08:30:13;99219.31;;;16.54;56.14
64792;BME280;51226;47.504;19.074;2023-04-25T08:33:17;99207.00;;;16.56;56.29
64792;BME280;51226;47.504;19.074;2023-04-25T08:36:20;99217.56;;;16.52;55.00
64792;BME280;51226;47.504;19.074;2023-04-25T08:39:41;99226.31;;;16.55;54.75
64792;BME280;51226;47.504;19.074;2023-04-25T08:42:47;99235.16;;;16.40;55.87
64792;BME280;51226;47.504;19.074;2023-04-25T08:45:51;99229.00;;;16.44;55.91
64792;BME280;51226;47.504;19.074;2023-04-25T08:49:00;99222.78;;;16.64;54.24
64792;BME280;51226;47.504;19.074;2023-04-25T08:52:03;99235.84;;;16.79;54.93
64792;BME280;51226;47.504;19.074;2023-04-25T08:55:09;99234.06;;;16.91;52.41
64792;BME280;51226;47.504;19.074;2023-04-25T08:58:12;99237.53;;;16.96;52.02
64792;BME280;51226;47.504;19.074;2023-04-25T09:01:15;99241.91;;;16.97;52.53
64792;BME280;51226;47.504;19.074;2023-04-25T09:04:20;99234.91;;;16.93;52.87
64792;BME280;51226;47.504;19.074;2023-04-25T09:07:24;99244.53;;;16.97;52.83
64792;BME280;51226;47.504;19.074;2023-04-25T09:10:28;99241.72;;;17.25;52.05
64792;BME280;51226;47.504;19.074;2023-04-25T09:13:33;99243.16;;;17.63;49.74
64792;BME280;51226;47.504;19.074;2023-04-25T09:16:40;99238.56;;;17.82;49.02
64792;BME280;51226;47.504;19.074;2023-04-25T09:20:05;99241.03;;;18.03;49.61
64792;BME280;51226;47.504;19.074;2023-04-25T09:23:08;99239.69;;;18.43;47.88
64792;BME280;51226;47.504;19.074;2023-04-25T09:26:15;99239.47;;;18.60;47.05
64792;BME280;51226;47.504;19.074;2023-04-25T09:29:19;99232.44;;;18.57;47.82
64792;BME280;51226;47.504;19.074;2023-04-25T09:32:30;99232.13;;;18.82;47.73
64792;BME280;51226;47.504;19.074;2023-04-25T09:35:41;99232.81;;;18.98;47.41
64792;BME280;51226;47.504;19.074;2023-04-25T09:38:46;99233.22;;;19.28;45.91
64792;BME280;51226;47.504;19.074;2023-04-25T09:41:53;99221.84;;;19.22;47.82
64792;BME280;51226;47.504;19.074;2023-04-25T09:44:56;99231.72;;;19.11;45.76
64792;BME280;51226;47.504;19.074;2023-04-25T09:48:03;99232.06;;;18.88;46.14
64792;BME280;51226;47.504;19.074;2023-04-25T09:54:09;99230.19;;;18.96;45.77
64792;BME280;51226;47.504;19.074;2023-04-25T09:57:16;99230.84;;;19.09;45.89
64792;BME280;51226;47.504;19.074;2023-04-25T10:00:19;99232.19;;;19.38;45.96
64792;BME280;51226;47.504;19.074;2023-04-25T10:03:23;99239.84;;;19.55;44.66
64792;BME280;51226;47.504;19.074;2023-04-25T10:06:29;99229.03;;;19.67;43.66
64792;BME280;51226;47.504;19.074;2023-04-25T10:09:33;99224.28;;;19.86;44.66
64792;BME280;51226;47.504;19.074;2023-04-25T10:12:39;99232.97;;;19.94;41.76
64792;BME280;51226;47.504;19.074;2023-04-25T10:15:42;99230.69;;;19.73;42.43
64792;BME280;51226;47.504;19.074;2023-04-25T10:18:45;99241.66;;;19.51;42.79
64792;BME280;51226;47.504;19.074;2023-04-25T10:22:04;99223.66;;;19.19;42.81
64792;BME280;51226;47.504;19.074;2023-04-25T10:25:08;99233.59;;;19.04;42.38
64792;BME280;51226;47.504;19.074;2023-04-25T10:28:11;99225.22;;;18.73;43.14
64792;BME280;51226;47.504;19.074;2023-04-25T10:31:14;99232.75;;;18.32;44.67
64792;BME280;51226;47.504;19.074;2023-04-25T10:34:18;99219.69;;;18.22;44.85
64792;BME280;51226;47.504;19.074;2023-04-25T10:37:22;99234.78;;;18.09;44.75
64792;BME280;51226;47.504;19.074;2023-04-25T10:40:26;99220.75;;;18.05;44.13
64792;BME280;51226;47.504;19.074;2023-04-25T10:46:35;99228.00;;;17.86;45.85
64792;BME280;51226;47.504;19.074;2023-04-25T10:49:42;99228.81;;;17.96;46.08
64792;BME280;51226;47.504;19.074;2023-04-25T10:52:44;99238.72;;;18.50;45.06
64792;BME280;51226;47.504;19.074;2023-04-25T10:55:50;99243.19;;;19.10;43.66
64792;BME280;51226;47.504;19.074;2023-04-25T11:02:11;99237.84;;;19.66;40.33
64792;BME280;51226;47.504;19.074;2023-04-25T11:05:16;99243.12;;;19.68;41.26
64792;BME280;51226;47.504;19.074;2023-04-25T11:08:27;99245.06;;;19.58;42.36
64792;BME280;51226;47.504;19.074;2023-04-25T11:11:37;99251.19;;;19.60;42.29
64792;BME280;51226;47.504;19.074;2023-04-25T11:14:40;99247.31;;;19.81;40.04
64792;BME280;51226;47.504;19.074;2023-04-25T11:17:43;99246.03;;;20.04;39.08
64792;BME280;51226;47.504;19.074;2023-04-25T11:20:49;99249.78;;;20.37;38.22
64792;BME280;51226;47.504;19.074;2023-04-25T11:23:51;99243.16;;;21.00;38.71
64792;BME280;51226;47.504;19.074;2023-04-25T11:26:55;99245.63;;;21.47;36.95
64792;BME280;51226;47.504;19.074;2023-04-25T11:29:58;99242.84;;;21.86;34.55
64792;BME280;51226;47.504;19.074;2023-04-25T11:33:01;99251.12;;;21.74;34.24
64792;BME280;51226;47.504;19.074;2023-04-25T11:36:05;99246.47;;;22.15;34.35
64792;BME280;51226;47.504;19.074;2023-04-25T11:39:08;99245.34;;;22.55;33.44
64792;BME280;51226;47.504;19.074;2023-04-25T11:42:11;99255.91;;;22.58;32.81
64792;BME280;51226;47.504;19.074;2023-04-25T11:45:15;99254.44;;;22.15;35.43
64792;BME280;51226;47.504;19.074;2023-04-25T11:48:18;99254.78;;;21.68;34.19
64792;BME280;51226;47.504;19.074;2023-04-25T11:51:27;99259.56;;;21.16;35.81
64792;BME280;51226;47.504;19.074;2023-04-25T11:54:30;99258.94;;;20.66;35.95
64792;BME280;51226;47.504;19.074;2023-04-25T11:57:33;99271.06;;;20.32;35.83
64792;BME280;51226;47.504;19.074;2023-04-25T12:00:35;99275.94;;;20.09;35.69
64792;BME280;51226;47.504;19.074;2023-04-25T12:03:45;99279.19;;;19.76;36.54
64792;BME280;51226;47.504;19.074;2023-04-25T12:06:49;99277.69;;;19.57;37.61
64792;BME280;51226;47.504;19.074;2023-04-25T12:09:52;99285.06;;;19.38;37.34
64792;BME280;51226;47.504;19.074;2023-04-25T12:12:55;99286.34;;;19.11;39.23
64792;BME280;51226;47.504;19.074;2023-04-25T12:15:58;99284.81;;;18.94;38.74
64792;BME280;51226;47.504;19.074;2023-04-25T12:19:02;99276.81;;;18.99;40.73
64792;BME280;51226;47.504;19.074;2023-04-25T12:22:18;99275.31;;;19.41;38.63
64792;BME280;51226;47.504;19.074;2023-04-25T12:28:37;99272.97;;;20.69;36.88
64792;BME280;51226;47.504;19.074;2023-04-25T12:31:39;99274.41;;;21.62;34.71
64792;BME280;51226;47.504;19.074;2023-04-25T12:34:42;99266.81;;;22.16;33.40
64792;BME280;51226;47.504;19.074;2023-04-25T12:37:45;99273.66;;;22.25;33.90
64792;BME280;51226;47.504;19.074;2023-04-25T12:40:48;99262.53;;;22.43;32.44
64792;BME280;51226;47.504;19.074;2023-04-25T12:43:50;99258.03;;;22.14;32.37
64792;BME280;51226;47.504;19.074;2023-04-25T12:46:53;99255.25;;;21.86;31.51
64792;BME280;51226;47.504;19.074;2023-04-25T12:49:57;99258.44;;;21.64;35.15
64792;BME280;51226;47.504;19.074;2023-04-25T12:52:59;99248.09;;;21.88;31.79
64792;BME280;51226;47.504;19.074;2023-04-25T12:56:02;99243.25;;;22.04;30.17
64792;BME280;51226;47.504;19.074;2023-04-25T12:59:05;99234.38;;;22.05;30.09
64792;BME280;51226;47.504;19.074;2023-04-25T13:02:08;99249.13;;;22.15;31.88
64792;BME280;51226;47.504;19.074;2023-04-25T13:05:11;99245.72;;;22.10;30.11
64792;BME280;51226;47.504;19.074;2023-04-25T13:08:14;99246.75;;;22.06;30.13
64792;BME280;51226;47.504;19.074;2023-04-25T13:11:18;99231.53;;;22.11;29.80
64792;BME280;51226;47.504;19.074;2023-04-25T13:14:20;99241.44;;;22.06;29.94
64792;BME280;51226;47.504;19.074;2023-04-25T13:17:23;99235.09;;;22.10;30.38
64792;BME280;51226;47.504;19.074;2023-04-25T13:20:27;99236.03;;;22.09;32.96
64792;BME280;51226;47.504;19.074;2023-04-25T13:23:30;99237.75;;;22.10;29.80
64792;BME280;51226;47.504;19.074;2023-04-25T13:26:33;99232.00;;;21.61;30.82
64792;BME280;51226;47.504;19.074;2023-04-25T13:29:36;99234.06;;;21.48;30.43
64792;BME280;51226;47.504;19.074;2023-04-25T13:32:40;99224.72;;;21.32;29.94
64792;BME280;51226;47.504;19.074;2023-04-25T13:35:44;99218.88;;;21.19;30.22
64792;BME280;51226;47.504;19.074;2023-04-25T13:38:48;99228.84;;;21.07;30.55
64792;BME280;51226;47.504;19.074;2023-04-25T13:41:52;99209.19;;;21.16;29.69
64792;BME280;51226;47.504;19.074;2023-04-25T13:44:54;99208.22;;;21.20;29.57
64792;BME280;51226;47.504;19.074;2023-04-25T13:47:57;99209.34;;;21.10;29.40
64792;BME280;51226;47.504;19.074;2023-04-25T13:51:00;99219.47;;;20.92;29.57
64792;BME280;51226;47.504;19.074;2023-04-25T13:54:03;99208.91;;;20.91;29.34
64792;BME280;51226;47.504;19.074;2023-04-25T13:57:05;99212.66;;;20.82;29.99
64792;BME280;51226;47.504;19.074;2023-04-25T14:00:09;99224.25;;;20.78;30.03
64792;BME280;51226;47.504;19.074;2023-04-25T14:03:12;99207.44;;;20.78;29.02
64792;BME280;51226;47.504;19.074;2023-04-25T14:06:14;99217.81;;;20.46;28.61
64792;BME280;51226;47.504;19.074;2023-04-25T14:09:23;99218.19;;;20.28;29.18
64792;BME280;51226;47.504;19.074;2023-04-25T14:12:27;99219.12;;;20.25;29.55
64792;BME280;51226;47.504;19.074;2023-04-25T14:15:34;99219.22;;;20.21;29.39
64792;BME280;51226;47.504;19.074;2023-04-25T14:18:37;99224.72;;;20.11;31.05
64792;BME280;51226;47.504;19.074;2023-04-25T14:21:39;99216.87;;;20.07;29.79
64792;BME280;51226;47.504;19.074;2023-04-25T14:24:44;99221.84;;;19.74;30.78
64792;BME280;51226;47.504;19.074;2023-04-25T14:27:47;99216.97;;;19.51;30.45
64792;BME280;51226;47.504;19.074;2023-04-25T14:30:52;99224.41;;;19.29;31.00
64792;BME280;51226;47.504;19.074;2023-04-25T14:33:55;99221.63;;;19.38;30.93
64792;BME280;51226;47.504;19.074;2023-04-25T14:37:00;99214.06;;;19.13;31.16
64792;BME280;51226;47.504;19.074;2023-04-25T14:40:03;99216.97;;;18.98;31.63
64792;BME280;51226;47.504;19.074;2023-04-25T14:43:07;99218.97;;;18.77;33.80
64792;BME280;51226;47.504;19.074;2023-04-25T14:46:10;99214.59;;;18.78;32.78
64792;BME280;51226;47.504;19.074;2023-04-25T14:49:13;99210.97;;;18.82;33.87
64792;BME280;51226;47.504;19.074;2023-04-25T14:52:15;99217.34;;;18.67;34.44
64792;BME280;51226;47.504;19.074;2023-04-25T14:55:18;99215.59;;;18.66;33.81
64792;BME280;51226;47.504;19.074;2023-04-25T14:58:21;99212.06;;;18.68;32.83
64792;BME280;51226;47.504;19.074;2023-04-25T15:01:23;99209.59;;;18.56;32.73
64792;BME280;51226;47.504;19.074;2023-04-25T15:04:26;99211.56;;;18.40;33.28
64792;BME280;51226;47.504;19.074;2023-04-25T15:07:29;99223.06;;;18.36;33.62
64792;BME280;51226;47.504;19.074;2023-04-25T15:10:32;99218.59;;;18.40;32.61
64792;BME280;51226;47.504;19.074;2023-04-25T15:13:35;99214.25;;;18.36;33.01
64792;BME280;51226;47.504;19.074;2023-04-25T15:16:38;99218.81;;;18.24;33.22
64792;BME280;51226;47.504;19.074;2023-04-25T15:19:40;99225.84;;;18.22;33.86
64792;BME280;51226;47.504;19.074;2023-04-25T15:22:43;99228.47;;;18.22;33.71
64792;BME280;51226;47.504;19.074;2023-04-25T15:25:49;99227.59;;;18.23;33.85
64792;BME280;51226;47.504;19.074;2023-04-25T15:28:52;99220.88;;;17.98;36.12
64792;BME280;51226;47.504;19.074;2023-04-25T15:31:54;99227.03;;;17.95;33.85
64792;BME280;51226;47.504;19.074;2023-04-25T15:34:57;99218.34;;;17.81;34.46
64792;BME280;51226;47.504;19.074;2023-04-25T15:38:00;99223.75;;;17.71;34.49
64792;BME280;51226;47.504;19.074;2023-04-25T15:41:02;99230.84;;;17.62;35.25
64792;BME280;51226;47.504;19.074;2023-04-25T15:44:08;99230.06;;;17.50;35.39
64792;BME280;51226;47.504;19.074;2023-04-25T15:47:12;99230.16;;;17.44;35.55
64792;BME280;51226;47.504;19.074;2023-04-25T15:50:15;99229.38;;;17.31;36.36
64792;BME280;51226;47.504;19.074;2023-04-25T15:53:18;99228.44;;;17.37;36.14
64792;BME280;51226;47.504;19.074;2023-04-25T15:56:20;99227.62;;;17.29;35.78
64792;BME280;51226;47.504;19.074;2023-04-25T15:59:23;99234.72;;;17.20;36.76
64792;BME280;51226;47.504;19.074;2023-04-25T16:02:25;99236.63;;;16.97;38.11
64792;BME280;51226;47.504;19.074;2023-04-25T16:05:28;99242.75;;;17.00;38.89
64792;BME280;51226;47.504;19.074;2023-04-25T16:08:31;99251.63;;;16.87;40.44
64792;BME280;51226;47.504;19.074;2023-04-25T16:11:37;99245.53;;;16.71;41.48
64792;BME280;51226;47.504;19.074;2023-04-25T16:14:39;99249.97;;;16.60;42.00